| time (UTC) | temp F | wind direction | speed knots | gust knots | rain 1hr in | rain 24hr in | rain mn in | humidity % | barometer mb |
| 20260510152806 | 73 | 275 | 2.6 | 3.5 | 0.00 | 0.02 | 0.00 | 64 | 1012.8 |
| 20260510152307 | 73 | 200 | 1.7 | 3.5 | 0.00 | 0.02 | 0.00 | 67 | 1012.8 |
| 20260510151805 | 73 | 313 | 0.0 | 1.7 | 0.00 | 0.02 | 0.00 | 63 | 1012.9 |
| 20260510151305 | 72 | 310 | 0.9 | 2.6 | 0.00 | 0.02 | 0.00 | 66 | 1012.8 |
| 20260510150805 | 72 | 333 | 1.7 | 4.3 | 0.00 | 0.02 | 0.00 | 68 | 1012.7 |
| 20260510150304 | 72 | 274 | 0.9 | 5.2 | 0.00 | 0.02 | 0.00 | 66 | 1012.7 |
| 20260510145804 | 71 | 245 | 3.5 | 5.2 | 0.00 | 0.02 | 0.00 | 67 | 1012.7 |
| 20260510145306 | 71 | 202 | 3.5 | 5.2 | 0.00 | 0.02 | 0.00 | 69 | 1012.7 |
| 20260510144805 | 71 | 248 | 0.9 | 5.2 | 0.00 | 0.02 | 0.00 | 68 | 1012.7 |
| 20260510144305 | 70 | 283 | 1.7 | 5.2 | 0.00 | 0.02 | 0.00 | 70 | 1012.7 |
| 20260510143805 | 70 | 31 | 2.6 | 4.3 | 0.00 | 0.02 | 0.00 | 71 | 1012.8 |
| 20260510143305 | 69 | 230 | 1.7 | 4.3 | 0.00 | 0.02 | 0.00 | 69 | 1012.8 |
| 20260510142805 | 69 | 254 | 2.6 | 4.3 | 0.00 | 0.02 | 0.00 | 69 | 1012.9 |
| 20260510142306 | 69 | 248 | 1.7 | 3.5 | 0.00 | 0.02 | 0.00 | 71 | 1012.9 |
| 20260510142059 | 69 | 214 | 1.7 | 3.5 | 0.00 | 0.02 | 0.00 | 71 | 1012.9 |
| 20260510141435 | 68 | 23 | 0.9 | 2.6 | 0.00 | 0.02 | 0.00 | 74 | 1012.9 |
| 20260510141359 | 68 | 237 | 1.7 | 3.5 | 0.00 | 0.02 | 0.00 | 72 | 1012.9 |
| 20260510140625 | 67 | 285 | 0.9 | 2.6 | 0.00 | 0.02 | 0.00 | 74 | 1012.9 |
| 20260510140123 | 67 | 266 | 1.7 | 2.6 | 0.00 | 0.02 | 0.00 | 73 | 1012.9 |
| 20260510135622 | 66 | 316 | 0.0 | 2.6 | 0.00 | 0.02 | 0.00 | 75 | 1012.8 |
| 20260510134804 | 66 | 235 | 0.9 | 2.6 | 0.00 | 0.02 | 0.00 | 76 | 1012.8 |
| 20260510134303 | 65 | 295 | 0.0 | 2.6 | 0.00 | 0.02 | 0.00 | 77 | 1012.7 |
| 20260510133804 | 65 | 295 | 0.9 | 4.3 | 0.00 | 0.02 | 0.00 | 80 | 1012.7 |
| 20260510133615 | 64 | 227 | 2.6 | 4.3 | 0.00 | 0.02 | 0.00 | 82 | 1012.7 |
| 20260510132946 | 63 | 238 | 1.7 | 2.6 | 0.00 | 0.02 | 0.00 | 84 | 1012.7 |
| 20260510132905 | 64 | 247 | 2.6 | 3.5 | 0.00 | 0.02 | 0.00 | 82 | 1012.7 |
| 20260510131817 | 59 | 193 | 0.9 | 1.7 | 0.00 | 0.02 | 0.00 | 92 | 1012.8 |
| 20260510131809 | 62 | 190 | 1.7 | 2.6 | 0.00 | 0.02 | 0.00 | 86 | 1012.7 |
| 20260510131408 | 61 | 220 | 1.7 | 2.6 | 0.00 | 0.02 | 0.00 | 88 | 1012.7 |
| 20260510130303 | 59 | 0.0 | 0.0 | 0.00 | 0.02 | 0.00 | 92 | 1012.8 | |
| 20260510125803 | 0 | 217 | 0.0 | 0.9 | 0.00 | 0.02 | 0.00 | 1012.8 | |
| 20260510125306 | 0 | 217 | 0.0 | 2.6 | 0.00 | 0.02 | 0.00 | 1012.8 | |
| 20260510124803 | 0 | 217 | 0.9 | 2.6 | 0.00 | 0.02 | 0.00 | 1012.9 | |
| 20260510124304 | 55 | 257 | 0.0 | 1.7 | 0.00 | 0.02 | 0.00 | 95 | 1012.8 |
| 20260510124119 | 55 | 207 | 0.9 | 2.6 | 0.00 | 0.02 | 0.00 | 95 | 1012.8 |
| 20260510123304 | 55 | 195 | 1.7 | 2.6 | 0.00 | 0.02 | 0.00 | 95 | 1012.8 |
| 20260510122803 | 54 | 186 | 0.0 | 2.6 | 0.00 | 0.02 | 0.00 | 95 | 1012.7 |
| 20260510122628 | 53 | 186 | 0.9 | 2.6 | 0.00 | 0.02 | 0.00 | 95 | 1012.6 |
| 20260510121803 | 0 | 39 | 0.0 | 0.0 | 0.00 | 0.02 | 0.00 | 1012.5 | |
| 20260510121304 | 0 | 39 | 0.0 | 0.9 | 0.00 | 0.02 | 0.00 | 1012.4 | |
| 20260510121109 | 0 | 39 | 0.0 | 0.9 | 0.00 | 0.02 | 0.00 | 1012.2 | |
| 20260510120302 | 53 | 39 | 0.0 | 0.9 | 0.00 | 0.02 | 0.00 | 95 | 1012.2 |
| 20260510115802 | 53 | 39 | 0.0 | 0.9 | 0.00 | 0.02 | 0.00 | 95 | 1012.2 |
| 20260510115305 | 52 | 39 | 0.0 | 0.9 | 0.00 | 0.02 | 0.00 | 95 | 1012.2 |
| 20260510115118 | 52 | 39 | 0.0 | 0.9 | 0.00 | 0.02 | 0.00 | 95 | 1012.1 |
| 20260510114303 | 52 | 39 | 0.0 | 1.7 | 0.00 | 0.02 | 0.00 | 95 | 1012.1 |
| 20260510113802 | 52 | 39 | 0.0 | 1.7 | 0.00 | 0.02 | 0.00 | 95 | 1012.0 |
| 20260510113304 | 52 | 39 | 0.9 | 1.7 | 0.00 | 0.02 | 0.00 | 95 | 1011.9 |
| 20260510112803 | 51 | 39 | 0.0 | 0.9 | 0.00 | 0.02 | 0.00 | 95 | 1011.8 |
| 20260510112305 | 51 | 39 | 0.0 | 0.9 | 0.00 | 0.02 | 0.00 | 95 | 1011.7 |
| 20260510111804 | 51 | 0.0 | 0.0 | 0.00 | 0.02 | 0.00 | 95 | 1011.9 | |
| 20260510111618 | 51 | 34 | 0.9 | 0.9 | 0.00 | 0.02 | 0.00 | 95 | 1012.0 |
| 20260510110804 | 0 | 34 | 0.9 | 0.9 | 0.00 | 0.02 | 0.00 | 1011.7 | |
| 20260510110302 | 0 | 31 | 0.9 | 0.9 | 0.00 | 0.02 | 0.00 | 1011.9 | |
| 20260510105759 | 0 | 31 | 0.9 | 1.7 | 0.00 | 0.02 | 0.00 | 1011.9 | |
| 20260510105259 | 50 | 32 | 0.9 | 1.7 | 0.00 | 0.02 | 0.00 | 94 | 1011.8 |
| 20260510104759 | 50 | 20 | 0.9 | 0.9 | 0.00 | 0.02 | 0.00 | 94 | 1011.6 |
| 20260510104300 | 50 | 20 | 0.0 | 0.9 | 0.00 | 0.02 | 0.00 | 94 | 1011.5 |
| 20260510103800 | 50 | 20 | 0.0 | 2.6 | 0.00 | 0.02 | 0.00 | 95 | 1011.4 |
| 20260510103257 | 50 | 20 | 0.9 | 2.6 | 0.00 | 0.02 | 0.00 | 95 | 1011.3 |
| 20260510102800 | 50 | 0.0 | 0.0 | 0.00 | 0.02 | 0.00 | 94 | 1011.4 | |
| 20260510102257 | 50 | 35 | 0.0 | 0.0 | 0.00 | 0.02 | 0.00 | 94 | 1011.3 |
| 20260510102112 | 50 | 35 | 0.0 | 0.9 | 0.00 | 0.02 | 0.00 | 94 | 1011.1 |
| 20260510101257 | 50 | 35 | 0.0 | 0.9 | 0.00 | 0.02 | 0.00 | 94 | 1011.0 |
| 20260510100756 | 50 | 35 | 0.0 | 1.7 | 0.00 | 0.02 | 0.00 | 94 | 1011.2 |
| 20260510100611 | 50 | 35 | 0.9 | 1.7 | 0.00 | 0.02 | 0.00 | 94 | 1011.1 |
| 20260510095757 | 49 | 38 | 0.9 | 1.7 | 0.00 | 0.02 | 0.00 | 94 | 1011.1 |
| 20260510095519 | 49 | 28 | 0.9 | 1.7 | 0.00 | 0.02 | 0.00 | 94 | 1011.1 |
| 20260510094755 | 49 | 28 | 0.9 | 1.7 | 0.00 | 0.02 | 0.00 | 94 | 1010.9 |
| 20260510094254 | 0 | 61 | 0.0 | 0.9 | 0.00 | 0.02 | 0.00 | 1011.0 | |
| 20260510093752 | 0 | 61 | 0.0 | 0.9 | 0.00 | 0.02 | 0.00 | 1011.0 | |
| 20260510093252 | 49 | 63 | 0.0 | 0.0 | 0.00 | 0.02 | 0.00 | 94 | 1010.9 |
| 20260510092752 | 49 | 63 | 0.0 | 0.0 | 0.00 | 0.02 | 0.00 | 94 | 1010.7 |
| 20260510092252 | 0 | 0.0 | 0.0 | 0.00 | 0.02 | 0.00 | 1010.7 | ||
| 20260510091751 | 49 | 0.0 | 0.0 | 0.00 | 0.02 | 0.00 | 94 | 1010.9 | |
| 20260510091249 | 49 | 0.0 | 0.0 | 0.00 | 0.02 | 0.00 | 94 | 1011.0 | |
| 20260510090746 | 49 | 0.0 | 0.0 | 0.00 | 0.02 | 0.00 | 94 | 1010.8 | |
| 20260510090246 | 49 | 39 | 0.0 | 2.6 | 0.00 | 0.02 | 0.00 | 94 | 1010.8 |
| 20260510085746 | 0 | 39 | 0.0 | 2.6 | 0.00 | 0.02 | 0.00 | 1011.1 | |
| 20260510085247 | 0 | 38 | 0.9 | 1.7 | 0.00 | 0.02 | 0.00 | 1011.0 | |
| 20260510084746 | 0 | 49 | 0.0 | 0.0 | 0.00 | 0.02 | 0.00 | 1011.4 | |
| 20260510084246 | 49 | 0.0 | 0.0 | 0.00 | 0.02 | 0.00 | 93 | 1010.9 | |
| 20260510083745 | 49 | 0.0 | 0.0 | 0.00 | 0.02 | 0.00 | 93 | 1011.0 | |
| 20260510083245 | 0 | 114 | 0.0 | 0.0 | 0.00 | 0.02 | 0.00 | 1010.9 | |
| 20260510082742 | 0 | 114 | 0.0 | 0.0 | 0.00 | 0.02 | 0.00 | 1011.1 | |
| 20260510082240 | 0 | 25 | 0.0 | 0.0 | 0.00 | 0.02 | 0.00 | 1010.9 | |
| 20260510081740 | 0 | 25 | 0.0 | 0.0 | 0.00 | 0.02 | 0.00 | 1010.4 | |
| 20260510081239 | 0 | 25 | 0.0 | 0.0 | 0.00 | 0.02 | 0.00 | 1010.4 | |
| 20260510080740 | 48 | 25 | 0.0 | 0.0 | 0.00 | 0.02 | 0.00 | 93 | 1010.3 |
| 20260510080240 | 48 | 25 | 0.0 | 0.0 | 0.00 | 0.02 | 0.00 | 93 | 1010.2 |
| 20260510075738 | 48 | 25 | 0.0 | 0.0 | 0.00 | 0.02 | 0.00 | 93 | 1010.2 |
| 20260510075555 | 48 | 25 | 0.0 | 0.0 | 0.00 | 0.02 | 0.00 | 92 | 1010.3 |
| 20260510074739 | 49 | 0.0 | 0.0 | 0.00 | 0.02 | 0.00 | 92 | 1010.3 | |
| 20260510074240 | 49 | 0.0 | 0.0 | 0.00 | 0.02 | 0.00 | 92 | 1010.3 | |
| 20260510073738 | 49 | 25 | 1.7 | 1.7 | 0.00 | 0.02 | 0.00 | 92 | 1010.3 |
| 20260510073241 | 49 | 25 | 1.7 | 1.7 | 0.00 | 0.02 | 0.00 | 92 | 1010.2 |
| 20260510072739 | 49 | 7 | 0.9 | 1.7 | 0.00 | 0.02 | 0.00 | 92 | 1010.2 |
| 20260510072553 | 50 | 7 | 0.0 | 0.0 | 0.00 | 0.02 | 0.00 | 92 | 1010.1 |
| 20260510072051 | 50 | 7 | 0.0 | 0.0 | 0.00 | 0.02 | 0.00 | 92 | 1010.1 |
| 20260510071508 | 51 | 7 | 0.0 | 0.0 | 0.00 | 0.02 | 0.00 | 93 | 1010.0 |
| 20260510071028 | 51 | 7 | 0.0 | 0.0 | 0.00 | 0.02 | 0.00 | 93 | 1009.9 |
| 20260510070549 | 51 | 7 | 0.0 | 0.0 | 0.00 | 0.02 | 0.00 | 94 | 1009.9 |
| 20260510065736 | 51 | 7 | 0.0 | 0.0 | 0.00 | 0.02 | 0.00 | 93 | 1009.9 |
| 20260510065237 | 51 | 7 | 0.0 | 0.0 | 0.00 | 0.02 | 0.00 | 93 | 1009.8 |
| 20260510065028 | 51 | 7 | 0.0 | 0.0 | 0.00 | 0.02 | 0.00 | 93 | 1009.7 |
| 20260510064237 | 51 | 7 | 0.0 | 0.0 | 0.00 | 0.02 | 0.00 | 93 | 1009.6 |
| 20260510063738 | 51 | 7 | 0.0 | 0.0 | 0.00 | 0.02 | 0.00 | 93 | 1009.6 |
| 20260510063557 | 51 | 7 | 0.0 | 0.0 | 0.00 | 0.02 | 0.00 | 93 | 1009.7 |
| 20260510062738 | 51 | 7 | 0.0 | 0.0 | 0.00 | 0.02 | 0.00 | 93 | 1009.8 |
| 20260510062238 | 51 | 7 | 0.0 | 0.0 | 0.00 | 0.02 | 0.00 | 93 | 1009.7 |
| 20260510061733 | 51 | 7 | 0.0 | 0.0 | 0.00 | 0.02 | 0.00 | 93 | 1009.8 |
| 20260510061416 | 51 | 7 | 0.0 | 0.0 | 0.00 | 0.02 | 0.00 | 93 | 1009.8 |
| 20260510061333 | 51 | 7 | 0.0 | 0.0 | 0.00 | 0.02 | 0.00 | 93 | 1009.8 |
| 20260510060232 | 51 | 7 | 0.0 | 0.0 | 0.00 | 0.02 | 0.00 | 93 | 1009.8 |
| 20260510055732 | 51 | 7 | 0.0 | 0.0 | 0.00 | 0.02 | 0.00 | 93 | 1009.8 |
| 20260510055233 | 51 | 7 | 0.0 | 0.0 | 0.00 | 0.02 | 0.00 | 93 | 1009.8 |
| 20260510054733 | 51 | 7 | 0.0 | 0.0 | 0.00 | 0.02 | 0.00 | 93 | 1010.0 |
| 20260510054232 | 51 | 7 | 0.0 | 0.0 | 0.00 | 0.02 | 0.00 | 93 | 1010.0 |
| 20260510053733 | 51 | 7 | 0.0 | 0.0 | 0.00 | 0.02 | 0.00 | 93 | 1010.1 |
| 20260510053233 | 51 | 7 | 0.0 | 0.0 | 0.00 | 0.02 | 0.00 | 93 | 1010.1 |
| 20260510053046 | 51 | 7 | 0.0 | 0.0 | 0.00 | 0.02 | 0.00 | 93 | 1010.1 |
| 20260510052552 | 51 | 7 | 0.0 | 0.0 | 0.00 | 0.02 | 0.00 | 93 | 1010.2 |
| 20260510051734 | 51 | 7 | 0.0 | 0.0 | 0.00 | 0.02 | 0.00 | 93 | 1010.3 |
| 20260510051232 | 50 | 7 | 0.0 | 0.0 | 0.00 | 0.02 | 0.00 | 93 | 1010.2 |
| 20260510050734 | 50 | 7 | 0.0 | 0.0 | 0.00 | 0.02 | 0.00 | 93 | 1010.4 |
| 20260510050233 | 50 | 7 | 0.0 | 0.0 | 0.00 | 0.02 | 0.00 | 93 | 1010.3 |
| 20260510045734 | 50 | 7 | 0.0 | 0.0 | 0.00 | 0.02 | 0.00 | 93 | 1010.3 |
| 20260510045232 | 50 | 7 | 0.0 | 0.0 | 0.00 | 0.02 | 0.00 | 92 | 1010.3 |
| 20260510044734 | 50 | 7 | 0.0 | 0.0 | 0.00 | 0.02 | 0.00 | 92 | 1010.3 |
| 20260510044234 | 50 | 7 | 0.0 | 0.0 | 0.00 | 0.02 | 0.00 | 92 | 1010.4 |
| 20260510043731 | 50 | 7 | 0.0 | 0.0 | 0.00 | 0.02 | 0.00 | 92 | 1010.4 |
| 20260510043555 | 50 | 7 | 0.0 | 0.0 | 0.00 | 0.02 | 0.00 | 92 | 1010.4 |
| 20260510042731 | 50 | 7 | 0.0 | 0.0 | 0.00 | 0.02 | 0.00 | 92 | 1010.5 |
| 20260510042558 | 50 | 7 | 0.0 | 0.0 | 0.00 | 0.02 | 0.00 | 92 | 1010.5 |
| 20260510041732 | 51 | 7 | 0.0 | 0.0 | 0.00 | 0.02 | 0.00 | 91 | 1010.4 |
| 20260510041232 | 51 | 7 | 0.0 | 0.0 | 0.00 | 0.02 | 0.00 | 92 | 1010.6 |
| 20260510040731 | 51 | 7 | 0.0 | 0.0 | 0.00 | 0.02 | 0.00 | 92 | 1010.5 |
| 20260510040555 | 51 | 7 | 0.0 | 0.0 | 0.00 | 0.02 | 0.00 | 92 | 1010.6 |
| 20260510040053 | 51 | 7 | 0.0 | 0.0 | 0.00 | 0.02 | 0.02 | 91 | 1010.6 |
| 20260510035231 | 51 | 7 | 0.0 | 0.0 | 0.00 | 0.02 | 0.02 | 91 | 1010.5 |
| 20260510034732 | 51 | 7 | 0.0 | 0.0 | 0.00 | 0.02 | 0.02 | 91 | 1010.5 |
| 20260510034545 | 51 | 7 | 0.0 | 0.0 | 0.00 | 0.02 | 0.02 | 91 | 1010.5 |
| 20260510033730 | 51 | 7 | 0.0 | 0.0 | 0.00 | 0.02 | 0.02 | 91 | 1010.4 |
| 20260510033231 | 51 | 7 | 0.0 | 0.0 | 0.00 | 0.02 | 0.02 | 91 | 1010.4 |
| 20260510032731 | 51 | 7 | 0.0 | 0.0 | 0.00 | 0.02 | 0.02 | 91 | 1010.3 |
| 20260510032232 | 52 | 7 | 0.0 | 0.0 | 0.00 | 0.02 | 0.02 | 91 | 1010.3 |
| 20260510031729 | 52 | 7 | 0.0 | 0.0 | 0.00 | 0.02 | 0.02 | 91 | 1010.3 |
| 20260510031556 | 52 | 7 | 0.0 | 0.0 | 0.00 | 0.02 | 0.02 | 91 | 1010.3 |
| 20260510030729 | 52 | 7 | 0.0 | 0.0 | 0.00 | 0.02 | 0.02 | 91 | 1010.2 |
| 20260510030229 | 52 | 7 | 0.0 | 0.0 | 0.00 | 0.02 | 0.02 | 91 | 1010.1 |
| 20260510025729 | 52 | 7 | 0.0 | 0.0 | 0.00 | 0.02 | 0.02 | 91 | 1010.1 |
| 20260510025230 | 52 | 7 | 0.0 | 0.0 | 0.00 | 0.02 | 0.02 | 91 | 1010.0 |
| 20260510024728 | 52 | 7 | 0.0 | 0.0 | 0.00 | 0.02 | 0.02 | 91 | 1010.0 |
| 20260510024229 | 52 | 7 | 0.0 | 0.0 | 0.00 | 0.02 | 0.02 | 91 | 1010.0 |
| 20260510023729 | 52 | 7 | 0.0 | 0.0 | 0.00 | 0.02 | 0.02 | 91 | 1010.1 |
| 20260510023230 | 52 | 7 | 0.0 | 0.0 | 0.00 | 0.02 | 0.02 | 91 | 1010.1 |
| 20260510022728 | 0 | 7 | 0.0 | 0.0 | 0.00 | 0.02 | 0.02 | 1010.2 | |
| 20260510022228 | 0 | 7 | 0.0 | 0.0 | 0.00 | 0.02 | 0.02 | 1010.2 | |
| 20260510021729 | 0 | 7 | 0.0 | 0.0 | 0.00 | 0.02 | 0.02 | 1010.1 | |
| 20260510021228 | 52 | 7 | 0.0 | 0.0 | 0.00 | 0.02 | 0.02 | 90 | 1010.1 |
| 20260510020729 | 52 | 7 | 0.0 | 0.0 | 0.00 | 0.02 | 0.02 | 90 | 1010.1 |
| 20260510020229 | 52 | 7 | 0.0 | 0.0 | 0.00 | 0.02 | 0.02 | 90 | 1010.0 |
| 20260510020051 | 52 | 7 | 0.0 | 0.0 | 0.00 | 0.02 | 0.02 | 90 | 1010.0 |
| 20260510015546 | 53 | 7 | 0.0 | 0.9 | 0.00 | 0.02 | 0.02 | 90 | 1009.9 |
| 20260510014730 | 53 | 7 | 0.0 | 0.9 | 0.00 | 0.02 | 0.02 | 90 | 1009.9 |
| 20260510014358 | 53 | 7 | 0.0 | 0.0 | 0.00 | 0.02 | 0.02 | 90 | 1009.9 |
| 20260510014324 | 53 | 7 | 0.0 | 0.0 | 0.00 | 0.02 | 0.02 | 90 | 1009.9 |
| 20260510013229 | 53 | 7 | 0.0 | 0.0 | 0.00 | 0.02 | 0.02 | 90 | 1009.9 |
| 20260510012729 | 53 | 7 | 0.0 | 0.0 | 0.00 | 0.02 | 0.02 | 90 | 1009.9 |
| 20260510012231 | 53 | 7 | 0.0 | 0.0 | 0.00 | 0.02 | 0.02 | 89 | 1009.9 |
| 20260510011729 | 53 | 7 | 0.0 | 0.0 | 0.00 | 0.02 | 0.02 | 88 | 1009.8 |
| 20260510011229 | 53 | 7 | 0.0 | 0.0 | 0.00 | 0.02 | 0.02 | 88 | 1009.7 |
| 20260510010924 | 53 | 7 | 0.0 | 0.9 | 0.00 | 0.02 | 0.02 | 88 | 1009.6 |
| 20260510010835 | 53 | 7 | 0.0 | 0.9 | 0.00 | 0.02 | 0.02 | 88 | 1009.6 |
| 20260510005729 | 53 | 7 | 0.0 | 0.0 | 0.00 | 0.02 | 0.02 | 88 | 1009.6 |
| 20260510005228 | 53 | 7 | 0.0 | 0.0 | 0.00 | 0.02 | 0.02 | 88 | 1009.5 |
| 20260510004727 | 53 | 7 | 0.0 | 0.0 | 0.00 | 0.02 | 0.02 | 88 | 1009.5 |
| 20260510004227 | 54 | 7 | 0.0 | 0.9 | 0.00 | 0.02 | 0.02 | 87 | 1009.5 |
| 20260510003917 | 54 | 7 | 0.0 | 0.0 | 0.00 | 0.02 | 0.02 | 86 | 1009.5 |
| 20260510003837 | 54 | 7 | 0.0 | 0.9 | 0.00 | 0.02 | 0.02 | 87 | 1009.4 |
| 20260510002727 | 0 | 7 | 0.0 | 0.0 | 0.00 | 0.02 | 0.02 | 1009.5 | |
| 20260510002227 | 55 | 7 | 0.0 | 0.0 | 0.00 | 0.02 | 0.02 | 85 | 1009.4 |
| 20260510001727 | 55 | 7 | 0.0 | 0.0 | 0.00 | 0.02 | 0.02 | 85 | 1009.5 |
| 20260510001225 | 55 | 7 | 0.0 | 0.0 | 0.00 | 0.02 | 0.02 | 85 | 1009.4 |
| 20260510000726 | 56 | 7 | 0.0 | 0.0 | 0.00 | 0.02 | 0.02 | 84 | 1009.4 |
| 20260510000226 | 56 | 7 | 0.0 | 0.0 | 0.00 | 0.02 | 0.02 | 84 | 1009.5 |
| 20260509235727 | 56 | 7 | 0.0 | 0.0 | 0.00 | 0.02 | 0.02 | 83 | 1009.5 |
| 20260509235537 | 57 | 7 | 0.0 | 0.0 | 0.00 | 0.02 | 0.02 | 83 | 1009.5 |
| 20260509234727 | 57 | 7 | 0.0 | 0.0 | 0.00 | 0.02 | 0.02 | 82 | 1009.5 |
| 20260509234545 | 57 | 7 | 0.0 | 0.0 | 0.00 | 0.02 | 0.02 | 82 | 1009.5 |
| 20260509234052 | 57 | 7 | 0.0 | 0.0 | 0.00 | 0.02 | 0.02 | 82 | 1009.4 |
| 20260509233226 | 58 | 7 | 0.0 | 0.9 | 0.00 | 0.02 | 0.02 | 82 | 1009.5 |
| 20260509232725 | 58 | 7 | 0.0 | 0.9 | 0.00 | 0.02 | 0.02 | 82 | 1009.5 |
| 20260509232225 | 58 | 7 | 0.0 | 1.7 | 0.00 | 0.02 | 0.02 | 82 | 1009.5 |
| 20260509231724 | 58 | 7 | 0.9 | 1.7 | 0.00 | 0.02 | 0.02 | 82 | 1009.4 |
| 20260509231223 | 58 | 21 | 0.0 | 0.9 | 0.00 | 0.02 | 0.02 | 81 | 1009.4 |
| 20260509230724 | 58 | 21 | 0.0 | 1.7 | 0.00 | 0.02 | 0.02 | 81 | 1009.4 |
| 20260509230223 | 58 | 21 | 0.9 | 1.7 | 0.00 | 0.02 | 0.02 | 82 | 1009.3 |
| 20260509225724 | 58 | 350 | 0.0 | 1.7 | 0.00 | 0.02 | 0.01 | 82 | 1009.3 |
| 20260509225225 | 58 | 145 | 0.0 | 0.9 | 0.00 | 0.02 | 0.01 | 82 | 1009.3 |
| 20260509224723 | 58 | 145 | 0.0 | 1.7 | 0.00 | 0.02 | 0.01 | 82 | 1009.4 |
| 20260509224223 | 58 | 116 | 0.9 | 1.7 | 0.00 | 0.02 | 0.01 | 82 | 1009.4 |
| 20260509223724 | 58 | 134 | 0.0 | 1.7 | 0.00 | 0.02 | 0.01 | 83 | 1009.4 |
| 20260509223223 | 58 | 134 | 0.9 | 1.7 | 0.00 | 0.02 | 0.01 | 84 | 1009.5 |
| 20260509222722 | 57 | 111 | 0.9 | 1.7 | 0.00 | 0.02 | 0.01 | 84 | 1009.5 |
| 20260509222224 | 57 | 75 | 0.0 | 0.9 | 0.00 | 0.02 | 0.01 | 84 | 1009.5 |
| 20260509221722 | 57 | 93 | 0.0 | 1.7 | 0.00 | 0.02 | 0.01 | 84 | 1009.5 |
| 20260509221223 | 57 | 117 | 0.0 | 1.7 | 0.00 | 0.02 | 0.01 | 84 | 1009.4 |
| 20260509220722 | 57 | 114 | 0.0 | 1.7 | 0.00 | 0.02 | 0.01 | 85 | 1009.5 |
| 20260509220548 | 57 | 39 | 0.9 | 1.7 | 0.00 | 0.02 | 0.02 | 85 | 1009.5 |
| 20260509215723 | 57 | 103 | 0.0 | 1.7 | 0.01 | 0.01 | 0.02 | 86 | 1009.5 |
| 20260509215221 | 57 | 35 | 0.0 | 1.7 | 0.01 | 0.01 | 0.02 | 86 | 1009.5 |
| 20260509214724 | 57 | 28 | 0.0 | 1.7 | 0.01 | 0.01 | 0.02 | 86 | 1009.5 |
| 20260509214223 | 57 | 42 | 0.9 | 1.7 | 0.01 | 0.01 | 0.02 | 86 | 1009.5 |
| 20260509213722 | 57 | 42 | 0.0 | 1.7 | 0.01 | 0.01 | 0.02 | 86 | 1009.6 |
| 20260509213221 | 57 | 51 | 0.0 | 0.9 | 0.01 | 0.01 | 0.02 | 85 | 1009.5 |
| 20260509212723 | 58 | 51 | 0.0 | 2.6 | 0.01 | 0.01 | 0.02 | 85 | 1009.5 |
| 20260509212222 | 58 | 51 | 0.9 | 2.6 | 0.01 | 0.01 | 0.02 | 85 | 1009.5 |
| 20260509211748 | 58 | 37 | 0.9 | 1.7 | 0.01 | 0.01 | 0.02 | 85 | 1009.5 |
| 20260509211743 | 58 | 45 | 0.9 | 1.7 | 0.01 | 0.01 | 0.02 | 84 | 1009.5 |
| 20260509211731 | 58 | 52 | 0.9 | 1.7 | 0.01 | 0.01 | 0.02 | 84 | 1009.4 |
| 20260509210549 | 58 | 37 | 0.0 | 1.7 | 0.01 | 0.01 | 0.02 | 84 | 1009.5 |
| 20260509205722 | 0 | 47 | 0.0 | 0.0 | 0.00 | 0.01 | 0.01 | 1009.3 | |
| 20260509205711 | 0 | 45 | 0.9 | 0.9 | 0.00 | 0.01 | 0.01 | 1009.4 | |
| 20260509204717 | 59 | 45 | 0.9 | 1.7 | 0.00 | 0.01 | 0.01 | 82 | 1009.4 |
| 20260509204216 | 59 | 45 | 0.9 | 1.7 | 0.00 | 0.01 | 0.01 | 82 | 1009.5 |
| 20260509203718 | 59 | 45 | 0.9 | 1.7 | 0.00 | 0.01 | 0.01 | 80 | 1009.6 |
| 20260509203217 | 59 | 44 | 1.7 | 3.5 | 0.00 | 0.01 | 0.01 | 80 | 1009.6 |
| 20260509202716 | 59 | 39 | 1.7 | 3.5 | 0.00 | 0.01 | 0.01 | 79 | 1009.7 |
| 20260509202218 | 60 | 41 | 1.7 | 3.5 | 0.00 | 0.01 | 0.01 | 80 | 1009.5 |
| 20260509201717 | 59 | 39 | 1.7 | 3.5 | 0.00 | 0.01 | 0.01 | 81 | 1009.3 |
| 20260509201217 | 59 | 27 | 0.9 | 3.5 | 0.00 | 0.01 | 0.01 | 83 | 1009.4 |
| 20260509200716 | 59 | 44 | 0.9 | 4.3 | 0.00 | 0.01 | 0.01 | 84 | 1009.5 |
| 20260509200534 | 59 | 49 | 1.7 | 4.3 | 0.00 | 0.01 | 0.01 | 84 | 1009.6 |
| 20260509200034 | 58 | 28 | 1.7 | 4.3 | 0.00 | 0.01 | 0.01 | 86 | 1009.6 |
| 20260509195217 | 58 | 51 | 1.7 | 4.3 | 0.01 | 0.01 | 0.01 | 85 | 1009.6 |
| 20260509194715 | 58 | 41 | 1.7 | 2.6 | 0.01 | 0.01 | 0.01 | 86 | 1009.4 |
| 20260509194215 | 57 | 35 | 1.7 | 3.5 | 0.01 | 0.01 | 0.01 | 85 | 1009.4 |
| 20260509193717 | 57 | 48 | 0.9 | 3.5 | 0.01 | 0.01 | 0.01 | 86 | 1009.5 |
| 20260509193215 | 57 | 39 | 0.0 | 3.5 | 0.01 | 0.01 | 0.01 | 86 | 1009.8 |
| 20260509192716 | 57 | 37 | 0.9 | 2.6 | 0.01 | 0.01 | 0.01 | 86 | 1009.8 |
| 20260509192216 | 57 | 35 | 0.9 | 3.5 | 0.01 | 0.01 | 0.01 | 86 | 1010.0 |
| 20260509192042 | 57 | 37 | 1.7 | 3.5 | 0.01 | 0.01 | 0.01 | 85 | 1010.0 |
| 20260509191217 | 57 | 18 | 0.0 | 3.5 | 0.01 | 0.01 | 0.01 | 85 | 1010.0 |
| 20260509190716 | 57 | 35 | 0.0 | 4.3 | 0.01 | 0.01 | 0.01 | 85 | 1010.2 |
| 20260509190217 | 57 | 63 | 1.7 | 4.3 | 0.01 | 0.01 | 0.01 | 83 | 1010.2 |
| 20260509185716 | 57 | 3 | 0.0 | 3.5 | 0.01 | 0.00 | 0.00 | 84 | 1010.2 |
| 20260509185215 | 57 | 20 | 1.7 | 3.5 | 0.00 | 0.00 | 0.00 | 83 | 1010.3 |
| 20260509184716 | 57 | 37 | 1.7 | 3.5 | 0.00 | 0.00 | 0.00 | 82 | 1010.4 |
| 20260509184216 | 57 | 27 | 0.0 | 1.7 | 0.00 | 0.00 | 0.00 | 82 | 1010.6 |
| 20260509183717 | 57 | 0 | 0.0 | 1.7 | 0.00 | 0.00 | 0.00 | 83 | 1010.6 |
| 20260509183213 | 57 | 337 | 0.9 | 3.5 | 0.00 | 0.00 | 0.00 | 83 | 1010.5 |
| 20260509182714 | 57 | 44 | 0.9 | 3.5 | 0.00 | 0.00 | 0.00 | 83 | 1010.5 |
| 20260509182529 | 57 | 16 | 0.9 | 3.5 | 0.00 | 0.00 | 0.00 | 84 | 1010.5 |
| 20260509181713 | 58 | 24 | 1.7 | 3.5 | 0.00 | 0.00 | 0.00 | 79 | 1010.5 |
| 20260509181215 | 0 | 37 | 0.0 | 0.0 | 0.00 | 0.00 | 0.00 | 1010.6 | |
| 20260509180712 | 58 | 32 | 0.0 | 1.7 | 0.00 | 0.00 | 0.00 | 79 | 1010.8 |
| 20260509180210 | 58 | 32 | 0.0 | 3.5 | 0.00 | 0.00 | 0.00 | 79 | 1010.8 |
| 20260509175710 | 59 | 56 | 1.7 | 3.5 | 0.00 | 0.00 | 0.00 | 79 | 1010.8 |
| 20260509175209 | 59 | 38 | 0.9 | 3.5 | 0.00 | 0.00 | 0.00 | 78 | 1010.8 |
| 20260509174710 | 59 | 76 | 0.9 | 2.6 | 0.00 | 0.00 | 0.00 | 75 | 1010.9 |
| 20260509174208 | 60 | 283 | 0.9 | 1.7 | 0.00 | 0.00 | 0.00 | 74 | 1010.9 |
| 20260509173710 | 60 | 295 | 0.9 | 1.7 | 0.00 | 0.00 | 0.00 | 73 | 1010.8 |
| 20260509173208 | 61 | 224 | 0.0 | 2.6 | 0.00 | 0.00 | 0.00 | 75 | 1010.8 |
| 20260509172710 | 61 | 41 | 0.0 | 2.6 | 0.00 | 0.00 | 0.00 | 74 | 1010.7 |
| 20260509172210 | 61 | 305 | 0.9 | 1.7 | 0.00 | 0.00 | 0.00 | 73 | 1010.6 |
| 20260509171710 | 61 | 258 | 0.9 | 1.7 | 0.00 | 0.00 | 0.00 | 72 | 1010.5 |
| 20260509171410 | 61 | 44 | 0.0 | 2.6 | 0.00 | 0.00 | 0.00 | 75 | 1010.4 |
| 20260509171320 | 61 | 288 | 0.0 | 2.6 | 0.00 | 0.00 | 0.00 | 76 | 1010.4 |
| 20260509170209 | 61 | 23 | 0.9 | 2.6 | 0.00 | 0.00 | 0.00 | 74 | 1010.4 |
| 20260509165708 | 61 | 1 | 0.0 | 1.7 | 0.00 | 0.00 | 0.00 | 75 | 1010.6 |
| 20260509165208 | 61 | 275 | 0.0 | 2.6 | 0.00 | 0.00 | 0.00 | 76 | 1010.7 |
| 20260509165031 | 61 | 279 | 0.9 | 4.3 | 0.00 | 0.00 | 0.00 | 77 | 1010.7 |
| 20260509164208 | 60 | 286 | 1.7 | 4.3 | 0.00 | 0.00 | 0.00 | 78 | 1010.6 |
| 20260509164024 | 60 | 99 | 0.9 | 2.6 | 0.00 | 0.00 | 0.00 | 78 | 1010.5 |
| 20260509163532 | 60 | 281 | 1.7 | 2.6 | 0.00 | 0.00 | 0.00 | 77 | 1010.6 |
| 20260509162707 | 60 | 41 | 0.9 | 2.6 | 0.00 | 0.00 | 0.00 | 77 | 1010.5 |
| 20260509162224 | 60 | 274 | 0.0 | 1.7 | 0.00 | 0.00 | 0.00 | 80 | 1010.7 |
| 20260509162217 | 60 | 274 | 0.0 | 1.7 | 0.00 | 0.00 | 0.00 | 80 | 1010.6 |
| 20260509162209 | 60 | 106 | 0.9 | 2.6 | 0.00 | 0.00 | 0.00 | 78 | 1010.5 |
| 20260509160707 | 60 | 295 | 0.0 | 0.9 | 0.00 | 0.00 | 0.00 | 80 | 1010.8 |
| 20260509160527 | 60 | 295 | 0.0 | 1.7 | 0.00 | 0.00 | 0.00 | 80 | 1011.1 |
| 20260509155706 | 60 | 295 | 0.0 | 1.7 | 0.00 | 0.00 | 0.00 | 79 | 1011.2 |
| 20260509155205 | 61 | 76 | 0.9 | 1.7 | 0.00 | 0.00 | 0.00 | 77 | 1011.1 |
| 20260509154706 | 61 | 293 | 0.9 | 3.5 | 0.00 | 0.00 | 0.00 | 76 | 1011.3 |
| 20260509154524 | 62 | 299 | 1.7 | 3.5 | 0.00 | 0.00 | 0.00 | 73 | 1011.5 |
| 20260509153707 | 62 | 272 | 1.7 | 2.6 | 0.00 | 0.00 | 0.00 | 72 | 1011.4 |